Latest Weather Observations for Tasman Island

IDT60801

Issued at 5:31 pm EST Monday 6 July 2015 (issued every 30 minutes, with the page automatically refreshed every 10 minutes)

About weather observations | Map of weather stations | Latest weather observations for TAS | Other Formats
Station Details ID: 094155 Name: TASMAN ISLAND Lat: -43.24 Lon: 148.00 Height: 240.0 m
Data from the previous 72 hours. | See also: Recent months at Tasman Island
Date/Time
EST
Temp
°C
App
Temp
°C
Dew
Point
Rel
Hum
%
Delta-T
°C
Wind Press
QNH
hPa
Press
MSL
hPa
Rain
since 9 am
mm
Dir
 
Spd
km/h
Gust
km/h
Spd
kts
Gust
kts
06/05:30pm 4.0 -1.5 1.9 86 0.8 SSW 20 28 11 15 1018.3 1018.7 0.2
06/05:00pm 4.5 -0.4 2.2 85 0.9 S 17 33 9 18 1017.9 1018.3 0.2
06/04:30pm 4.1 -0.6 1.0 80 1.2 SSW 15 24 8 13 1017.7 1018.1 0.2
06/04:00pm 4.8 0.6 1.7 80 1.2 S 13 26 7 14 1017.5 1017.9 0.2
06/03:30pm 5.9 1.4 -0.6 63 2.5 S 13 24 7 13 1017.1 1017.5 0.2
06/03:00pm 5.6 0.7 -0.7 64 2.4 S 15 26 8 14 1017.0 1017.4 0.2
06/02:30pm 5.6 1.0 1.3 74 1.7 S 15 32 8 17 1016.7 1017.1 0.0
06/02:00pm 5.4 0.9 0.0 68 2.1 SSE 13 19 7 10 1016.6 1017.0 0.0
06/01:30pm 5.6 -0.4 1.0 72 1.8 SSE 22 44 12 24 1016.4 1016.8 0.0
06/01:00pm 5.8 0.4 -1.6 59 2.8 S 17 33 9 18 1016.6 1017.0 0.0
06/12:30pm 5.7 0.5 0.1 67 2.2 SSE 17 26 9 14 1016.6 1017.0 0.0
06/12:00pm 5.5 0.4 0.5 70 2.0 SSE 17 30 9 16 1016.7 1017.1 0.0
06/11:30am 5.5 1.4 2.2 79 1.4 SSE 13 20 7 11 1016.9 1017.3 0.0
06/11:00am 6.0 0.7 1.7 74 1.7 SSE 19 32 10 17 1016.8 1017.2 0.0
06/10:30am 5.1 -0.8 1.4 77 1.5 SSE 22 41 12 22 1016.8 1017.2 0.0
06/10:00am 4.6 -1.5 0.7 76 1.5 SSE 22 41 12 22 1016.7 1017.1 0.0
06/09:30am 5.3 0.8 2.0 79 1.3 S 15 26 8 14 1016.5 1016.9 0.0
06/09:00am 4.5 -0.5 1.5 81 1.2 SSE 17 30 9 16 1016.2 1016.6 2.0
06/08:30am 4.3 0.0 1.0 79 1.3 S 13 24 7 13 1016.1 1016.5 2.0
06/08:00am 4.2 -0.3 2.4 88 0.7 S 15 28 8 15 1015.9 1016.2 2.0
06/07:30am 3.8 -1.2 1.5 85 0.9 S 17 28 9 15 1015.8 1016.1 2.0
06/07:00am 4.3 0.0 3.0 91 0.5 SSE 15 28 8 15 1015.7 1016.0 1.2
06/06:30am 3.9 -1.6 1.6 85 0.9 SSW 20 32 11 17 1015.5 1015.8 1.0
06/06:00am 4.3 -0.4 1.2 80 1.2 S 15 26 8 14 1015.2 1015.5 1.0
06/05:30am 4.5 -0.2 0.8 77 1.5 S 15 26 8 14 1015.0 1015.3 1.0
06/05:00am 5.1 -0.3 1.0 75 1.6 S 19 28 10 15 1014.8 1015.1 1.0
06/04:30am 5.3 0.5 0.5 71 1.9 S 15 28 8 15 1014.7 1015.0 1.0
06/04:00am 5.3 0.0 -0.7 65 2.3 S 17 26 9 14 1014.5 1014.8 1.0
06/03:30am 5.2 0.3 -0.2 68 2.1 S 15 22 8 12 1014.6 1014.9 1.0
06/03:00am 5.2 0.7 -0.4 67 2.1 SSW 13 19 7 10 1014.7 1015.0 1.0
06/02:30am 5.0 0.5 0.0 70 1.9 SSW 13 22 7 12 1014.7 1015.0 1.0
06/02:00am 5.4 1.0 0.2 69 2.0 S 13 24 7 13 1014.6 1014.9 1.0
06/01:30am 5.3 0.5 0.1 69 2.0 SSW 15 22 8 12 1014.5 1014.8 1.0
06/01:00am 5.2 1.2 0.2 70 1.9 SSW 11 19 6 10 1014.5 1014.8 1.0
06/12:30am 5.5 1.2 0.9 72 1.8 S 13 20 7 11 1014.6 1014.9 1.0
06/12:00am 5.6 2.1 1.2 73 1.8 S 9 22 5 12 1014.7 1015.0 1.0
 
Date/Time
EST
Temp
°C
App
Temp
°C
Dew
Point
Rel
Hum
%
Delta-T
°C
Wind Press
QNH
hPa
Press
MSL
hPa
Rain
since 9 am
mm
Dir
 
Spd
km/h
Gust
km/h
Spd
kts
Gust
kts
05/11:30pm 5.5 0.8 0.9 72 1.8 SSW 15 20 8 11 1014.9 1015.2 1.0
05/11:00pm 5.7 1.5 1.6 75 1.7 SSW 13 19 7 10 1014.9 1015.2 1.0
05/10:30pm 5.7 1.5 1.4 74 1.7 SSW 13 24 7 13 1014.7 1015.0 1.0
05/10:00pm 5.5 1.4 2.2 79 1.4 S 13 24 7 13 1014.7 1015.0 1.0
05/09:30pm 5.6 1.6 2.9 83 1.1 S 13 22 7 12 1014.7 1015.0 1.0
05/09:00pm 5.6 1.6 2.9 83 1.1 SSW 13 22 7 12 1014.7 1015.0 1.0
05/08:30pm 5.6 2.1 3.4 86 0.9 S 11 19 6 10 1014.7 1015.0 1.0
05/08:00pm 5.6 1.7 3.6 87 0.9 SSW 13 22 7 12 1014.5 1014.8 1.0
05/07:30pm 5.9 2.2 4.2 89 0.7 SSW 13 20 7 11 1014.3 1014.7 1.0
05/07:00pm 5.3 2.2 3.6 89 0.7 S 9 24 5 13 1014.3 1014.7 1.0
05/06:30pm 5.6 2.6 4.1 90 0.6 SW 9 22 5 12 1014.0 1014.4 0.4
05/06:00pm 6.1 1.5 3.8 85 1.0 SSW 17 30 9 16 1013.9 1014.3 0.2
05/05:30pm 6.3 1.7 3.5 82 1.2 SSW 17 26 9 14 1013.7 1014.1 0.0
05/05:00pm 6.0 1.6 2.8 80 1.3 SSW 15 22 8 12 1013.5 1013.9 0.0
05/04:30pm 5.7 1.1 3.5 86 0.9 SSW 17 24 9 13 1013.4 1013.8 0.0
05/04:00pm 6.3 1.4 4.3 87 0.9 SSW 19 24 10 13 1013.3 1013.7 0.0
05/03:30pm 6.2 1.0 3.5 83 1.2 SSW 20 30 11 16 1013.1 1013.5 0.0
05/03:00pm 6.5 1.8 3.3 80 1.4 SSW 17 32 9 17 1012.9 1013.3 0.0
05/02:30pm 7.2 2.0 3.6 78 1.6 SSW 20 33 11 18 1013.0 1013.4 0.0
05/02:00pm 7.3 2.2 4.1 80 1.4 SSW 20 35 11 19 1012.9 1013.3 0.0
05/01:30pm 7.2 1.7 4.0 80 1.4 SSW 22 35 12 19 1012.8 1013.2 0.0
05/01:00pm 7.5 1.6 3.9 78 1.6 SSW 24 41 13 22 1012.9 1013.3 0.0
05/12:30pm 8.4 3.1 3.1 69 2.3 SW 20 39 11 21 1012.8 1013.2 0.0
05/12:00pm 7.9 3.7 1.7 65 2.6 SW 13 33 7 18 1013.0 1013.4 0.0
05/11:30am 7.8 2.5 2.9 71 2.1 SW 20 39 11 21 1012.9 1013.3 0.0
05/11:13am 7.9 1.1 3.2 72 2.0 SW 28 52 15 28 1013.1 1013.5 0.0
05/11:00am 8.5 4.6 3.4 70 2.2 SW 13 33 7 18 1013.3 1013.7 0.0
05/10:30am 7.9 4.1 3.9 76 1.8 WSW 13 28 7 15 1013.3 1013.7 0.0
05/10:00am 8.0 3.5 4.0 76 1.8 WSW 17 37 9 20 1013.2 1013.6 0.0
05/09:30am 7.1 2.1 3.5 78 1.5 SW 19 48 10 26 1013.1 1013.5 0.0
05/09:00am 7.7 2.9 4.7 81 1.3 WSW 19 39 10 21 1013.0 1013.4 0.0
05/08:30am 7.3 3.5 3.9 79 1.5 WSW 13 33 7 18 1013.3 1013.7 0.0
05/08:00am 7.2 3.7 3.3 76 1.7 WSW 11 32 6 17 1013.1 1013.5 0.0
05/07:30am 7.4 3.1 3.5 76 1.7 WSW 15 33 8 18 1012.7 1013.1 0.0
05/07:00am 7.4 3.1 3.1 74 1.8 W 15 37 8 20 1012.4 1012.7 0.0
05/06:30am 7.7 4.2 3.4 74 1.9 NW 11 37 6 20 1012.3 1012.6 0.0
05/06:00am 7.5 2.7 2.8 72 2.0 W 17 43 9 23 1012.1 1012.4 0.0
05/05:30am 7.4 3.4 2.9 73 1.9 WNW 13 37 7 20 1012.0 1012.3 0.0
05/05:00am 7.4 3.0 2.5 71 2.1 WNW 15 39 8 21 1011.8 1012.1 0.0
05/04:30am 7.3 4.0 2.6 72 2.0 NW 9 33 5 18 1012.0 1012.3 0.0
05/04:00am 7.3 4.0 2.6 72 2.0 WNW 9 24 5 13 1011.9 1012.2 0.0
05/03:30am 7.5 2.3 2.4 70 2.1 W 19 41 10 22 1011.9 1012.2 0.0
05/03:00am 7.5 3.5 2.6 71 2.1 W 13 33 7 18 1012.3 1012.6 0.0
05/02:30am 7.5 3.1 2.6 71 2.1 WNW 15 32 8 17 1012.6 1013.0 0.0
05/02:00am 7.5 2.2 2.0 68 2.3 WNW 19 35 10 19 1012.6 1013.0 0.0
05/01:30am 7.4 2.5 1.7 67 2.4 WNW 17 37 9 20 1012.2 1012.5 0.0
05/01:00am 7.5 3.3 1.4 65 2.5 WNW 13 35 7 19 1012.1 1012.4 0.0
05/12:30am 7.6 4.2 1.9 67 2.4 WNW 9 30 5 16 1012.3 1012.6 0.0
05/12:00am 7.6 3.8 1.7 66 2.4 W 11 33 6 18 1012.5 1012.8 0.0
 
Date/Time
EST
Temp
°C
App
Temp
°C
Dew
Point
Rel
Hum
%
Delta-T
°C
Wind Press
QNH
hPa
Press
MSL
hPa
Rain
since 9 am
mm
Dir
 
Spd
km/h
Gust
km/h
Spd
kts
Gust
kts
04/11:30pm 7.5 4.1 2.0 68 2.3 WNW 9 26 5 14 1012.4 1012.7 0.0
04/11:00pm 7.4 4.1 2.3 70 2.1 WNW 9 32 5 17 1012.3 1012.6 0.0
04/10:30pm 7.5 2.9 1.6 66 2.4 W 15 35 8 19 1012.4 1012.7 0.0
04/10:00pm 7.5 3.7 2.0 68 2.3 WNW 11 44 6 24 1012.4 1012.7 0.0
04/09:30pm 7.7 4.4 2.2 68 2.3 SSE 9 28 5 15 1012.8 1013.2 0.0
04/09:00pm 7.5 4.5 2.2 69 2.2 NNW 7 28 4 15 1012.7 1013.1 0.0
04/08:30pm 7.6 4.2 2.1 68 2.3 W 9 24 5 13 1012.3 1012.6 0.0
04/08:00pm 7.7 3.9 2.0 67 2.4 WNW 11 33 6 18 1012.5 1012.8 0.0
04/07:30pm 7.8 3.7 2.3 68 2.3 NNW 13 33 7 18 1012.3 1012.6 0.0
04/07:00pm 7.7 4.3 1.8 66 2.5 WNW 9 30 5 16 1012.1 1012.4 0.0
04/06:30pm 8.0 4.2 2.0 66 2.5 WNW 11 32 6 17 1011.9 1012.2 0.0
04/06:00pm 8.2 4.4 2.0 65 2.6 NW 11 26 6 14 1011.6 1011.9 0.0
04/05:30pm 8.6 4.8 1.7 62 2.9 NNW 11 35 6 19 1011.5 1011.8 0.0
04/05:00pm 8.7 4.9 1.8 62 2.9 NNE 11 30 6 16 1010.9 1011.2 0.0
04/04:30pm 8.5 4.2 1.0 59 3.1 NNW 13 46 7 25 1010.6 1010.9 0.0
04/04:00pm 8.9 5.4 1.3 59 3.2 NNE 9 28 5 15 1010.6 1010.9 0.0
04/03:30pm 8.8 4.6 1.5 60 3.0 W 13 39 7 21 1010.5 1010.8 0.0
04/03:00pm 8.5 3.7 4.5 76 1.8 W 19 39 10 21 1010.3 1010.6 0.0
04/02:30pm 9.3 6.3 4.1 70 2.3 NE 9 30 5 16 1010.2 1010.5 0.0
04/02:00pm 10.0 6.0 2.6 60 3.2 WNW 13 39 7 21 1009.5 1009.9 0.0
04/01:30pm 9.6 5.8 1.5 57 3.4 NNE 11 39 6 21 1009.5 1009.9 0.0
04/01:00pm 9.8 5.8 2.6 61 3.1 WSW 13 48 7 26 1009.7 1010.1 0.0
04/12:30pm 9.7 5.5 1.8 58 3.3 WSW 13 41 7 22 1009.6 1010.0 0.0
04/12:00pm 9.5 5.1 2.8 63 2.9 W 15 54 8 29 1009.6 1010.0 0.0
04/11:30am 9.9 6.3 3.2 63 2.9 SW 11 37 6 20 1009.9 1010.3 0.0
04/11:00am 10.5 7.5 4.2 65 2.8 NNW 9 33 5 18 1010.2 1010.5 0.0
04/10:30am 10.2 4.9 6.7 79 1.7 WSW 24 48 13 26 1010.1 1010.4 0.0
04/10:00am 9.5 5.2 6.8 83 1.3 SW 19 37 10 20 1009.9 1010.3 0.0
04/09:30am 9.7 6.9 7.1 84 1.2 WSW 11 26 6 14 1009.7 1010.1 0.0
04/09:00am 9.9 7.9 7.3 84 1.3 W 7 20 4 11 1009.6 1010.0 -
04/08:30am 9.3 6.2 7.3 87 1.0 WNW 13 28 7 15 1009.2 1009.6 -
04/08:00am 9.1 7.4 7.5 90 0.8 NW 6 20 3 11 1009.3 1009.7 -
04/07:30am 9.1 7.2 7.5 90 0.8 W 7 19 4 10 1009.0 1009.3 -
04/07:00am 9.1 7.4 7.4 89 0.8 NW 6 15 3 8 1008.6 1008.9 -
04/06:30am 9.1 7.1 7.1 87 1.0 W 7 22 4 12 1008.4 1008.7 -
04/06:00am 8.9 3.9 6.5 85 1.1 WNW 22 35 12 19 1008.1 1008.4 -
04/05:30am 9.0 3.3 6.6 85 1.1 WNW 26 44 14 24 1007.9 1008.2 -
04/05:00am 9.4 0.2 6.5 82 1.4 WNW 44 65 24 35 1007.2 1007.5 -
04/04:36am 9.5 2.0 4.7 72 2.2 NW 33 57 18 31 1007.2 1007.5 -
04/04:30am 9.3 2.0 4.5 72 2.2 NW 32 46 17 25 1007.4 1007.7 -
04/04:00am 10.0 2.7 4.6 69 2.5 WNW 32 54 17 29 1007.7 1008.0 -
04/03:55am 10.0 2.7 4.6 69 2.4 WNW 32 54 17 29 1007.7 1008.0 -
04/03:30am 9.6 2.1 4.2 69 2.4 WNW 33 48 18 26 1007.8 1008.1 -
04/03:00am 8.9 1.4 3.7 70 2.3 NW 32 52 17 28 1008.4 1008.7 0.0
04/02:59am 8.9 1.4 3.7 70 2.3 NW 32 52 17 28 1008.4 1008.7 -
04/02:30am 8.6 1.5 3.4 70 2.3 NW 30 43 16 23 1008.8 1009.1 -
04/02:00am 8.9 1.4 3.5 69 2.4 WNW 32 54 17 29 1008.9 1009.2 -
04/01:45am 8.5 0.9 3.1 69 2.3 NW 32 54 17 29 1009.1 1009.5 -
04/01:30am 8.3 1.5 3.0 69 2.3 NW 28 46 15 25 1009.4 1009.8 -
04/01:00am 8.2 0.9 2.7 68 2.4 NW 30 41 16 22 1009.7 1010.1 -
04/12:30am 8.3 0.1 2.5 67 2.5 NW 35 56 19 30 1009.7 1010.1 -
04/12:00am 8.4 -1.0 2.4 66 2.6 WNW 41 59 22 32 1010.2 1010.5 -
 
Date/Time
EST
Temp
°C
App
Temp
°C
Dew
Point
Rel
Hum
%
Delta-T
°C
Wind Press
QNH
hPa
Press
MSL
hPa
Rain
since 9 am
mm
Dir
 
Spd
km/h
Gust
km/h
Spd
kts
Gust
kts
03/11:35pm 8.5 -0.2 2.3 65 2.6 WNW 37 59 20 32 1010.8 1011.1 -
03/11:30pm 8.4 -0.3 2.0 64 2.7 WNW 37 54 20 29 1010.9 1011.2 -
03/11:04pm 8.6 1.6 2.2 64 2.7 WNW 28 52 15 28 1011.1 1011.4 -
03/11:00pm 8.7 2.6 2.5 65 2.6 WNW 24 46 13 25 1011.2 1011.5 -
03/10:33pm 8.1 1.1 2.1 66 2.5 WNW 28 48 15 26 1011.3 1011.6 -
03/10:30pm 8.0 0.6 2.0 66 2.5 WNW 30 48 16 26 1011.5 1011.8 -
03/10:25pm 8.2 1.2 2.0 65 2.6 WNW 28 48 15 26 1011.6 1011.9 -
03/10:00pm 7.9 0.5 2.0 66 2.5 WNW 30 44 16 24 1011.8 1012.1 -
03/09:30pm 8.2 0.2 1.8 64 2.7 WNW 33 57 18 31 1012.0 1012.3 -
03/09:17pm 8.3 1.3 2.1 65 2.6 NW 28 48 15 26 1012.0 1012.3 -
03/09:00pm 7.8 0.4 2.1 67 2.4 WNW 30 43 16 23 1012.7 1013.1 0.0
03/08:30pm 7.8 0.0 1.9 66 2.5 WNW 32 52 17 28 1012.9 1013.3 -
03/08:12pm 7.9 0.9 1.7 65 2.6 WNW 28 46 15 25 1013.1 1013.5 -
03/08:00pm 8.0 1.7 1.6 64 2.7 WNW 24 39 13 21 1013.3 1013.7 -
03/07:30pm 8.0 1.0 1.8 65 2.6 WNW 28 44 15 24 1013.8 1014.2 -
03/07:00pm 8.4 0.1 2.2 65 2.6 WNW 35 59 19 32 1013.9 1014.3 -
03/06:48pm 8.3 1.4 2.3 66 2.5 WNW 28 52 15 28 1013.9 1014.3 -
03/06:30pm 8.2 3.7 2.2 66 2.5 WNW 15 46 8 25 1014.0 1014.4 -
03/06:00pm 8.0 2.2 2.3 67 2.4 WNW 22 35 12 19 1014.9 1015.2 -
03/05:45pm 8.1 1.1 1.9 65 2.6 WNW 28 48 15 26 1014.5 1014.8 -

Other Formats:

Comma delimited format used in spreadsheet applications
http://www.bom.gov.au/fwo/IDT60801/IDT60801.95986.axf

JavaScript Object Notation format (JSON) in row-major order
http://www.bom.gov.au/fwo/IDT60801/IDT60801.95986.json